sensor_id;sensor_type;location;lat;lon;timestamp;P1;durP1;ratioP1;P2;durP2;ratioP2
17153;SDS011;8692;52.164;7.558;2023-03-14T00:02:16;4.57;;;2.03;;
17153;SDS011;8692;52.164;7.558;2023-03-14T00:04:46;7.17;;;2.17;;
17153;SDS011;8692;52.164;7.558;2023-03-14T00:07:17;6.20;;;1.83;;
17153;SDS011;8692;52.164;7.558;2023-03-14T00:09:47;6.87;;;2.07;;
17153;SDS011;8692;52.164;7.558;2023-03-14T00:12:15;6.00;;;2.20;;
17153;SDS011;8692;52.164;7.558;2023-03-14T00:14:43;8.23;;;2.10;;
17153;SDS011;8692;52.164;7.558;2023-03-14T00:17:11;7.47;;;2.37;;
17153;SDS011;8692;52.164;7.558;2023-03-14T00:19:40;4.17;;;1.90;;
17153;SDS011;8692;52.164;7.558;2023-03-14T00:22:09;8.73;;;2.53;;
17153;SDS011;8692;52.164;7.558;2023-03-14T00:24:40;4.53;;;2.17;;
17153;SDS011;8692;52.164;7.558;2023-03-14T00:27:08;6.03;;;2.17;;
17153;SDS011;8692;52.164;7.558;2023-03-14T00:29:37;5.10;;;2.03;;
17153;SDS011;8692;52.164;7.558;2023-03-14T00:32:05;7.90;;;2.10;;
17153;SDS011;8692;52.164;7.558;2023-03-14T00:34:39;7.33;;;2.03;;
17153;SDS011;8692;52.164;7.558;2023-03-14T00:37:10;9.30;;;2.17;;
17153;SDS011;8692;52.164;7.558;2023-03-14T00:39:39;5.47;;;2.10;;
17153;SDS011;8692;52.164;7.558;2023-03-14T00:42:10;8.63;;;2.60;;
17153;SDS011;8692;52.164;7.558;2023-03-14T00:44:38;6.80;;;1.97;;
17153;SDS011;8692;52.164;7.558;2023-03-14T00:47:06;6.17;;;1.63;;
17153;SDS011;8692;52.164;7.558;2023-03-14T00:49:35;3.30;;;1.73;;
17153;SDS011;8692;52.164;7.558;2023-03-14T00:52:05;6.63;;;2.13;;
17153;SDS011;8692;52.164;7.558;2023-03-14T00:54:34;5.60;;;2.17;;
17153;SDS011;8692;52.164;7.558;2023-03-14T00:57:02;6.00;;;1.80;;
17153;SDS011;8692;52.164;7.558;2023-03-14T00:59:31;5.47;;;2.03;;
17153;SDS011;8692;52.164;7.558;2023-03-14T01:02:01;5.17;;;1.93;;
17153;SDS011;8692;52.164;7.558;2023-03-14T01:04:29;5.10;;;2.67;;
17153;SDS011;8692;52.164;7.558;2023-03-14T01:06:59;8.07;;;2.33;;
17153;SDS011;8692;52.164;7.558;2023-03-14T01:09:28;7.57;;;1.90;;
17153;SDS011;8692;52.164;7.558;2023-03-14T01:11:57;7.43;;;1.80;;
17153;SDS011;8692;52.164;7.558;2023-03-14T01:14:25;4.87;;;2.00;;
17153;SDS011;8692;52.164;7.558;2023-03-14T01:16:56;8.70;;;2.33;;
17153;SDS011;8692;52.164;7.558;2023-03-14T01:19:27;7.33;;;1.97;;
17153;SDS011;8692;52.164;7.558;2023-03-14T01:21:58;4.33;;;1.63;;
17153;SDS011;8692;52.164;7.558;2023-03-14T01:24:26;5.83;;;1.90;;
17153;SDS011;8692;52.164;7.558;2023-03-14T01:26:55;7.13;;;1.73;;
17153;SDS011;8692;52.164;7.558;2023-03-14T01:29:26;6.70;;;2.13;;
17153;SDS011;8692;52.164;7.558;2023-03-14T01:31:56;6.20;;;1.70;;
17153;SDS011;8692;52.164;7.558;2023-03-14T01:34:25;3.97;;;1.60;;
17153;SDS011;8692;52.164;7.558;2023-03-14T01:36:53;9.27;;;2.67;;
17153;SDS011;8692;52.164;7.558;2023-03-14T01:39:23;6.80;;;1.67;;
17153;SDS011;8692;52.164;7.558;2023-03-14T01:41:51;5.37;;;2.10;;
17153;SDS011;8692;52.164;7.558;2023-03-14T01:44:20;6.07;;;1.87;;
17153;SDS011;8692;52.164;7.558;2023-03-14T01:46:49;10.00;;;2.70;;
17153;SDS011;8692;52.164;7.558;2023-03-14T01:49:21;7.37;;;2.50;;
17153;SDS011;8692;52.164;7.558;2023-03-14T01:52:00;4.17;;;2.07;;
17153;SDS011;8692;52.164;7.558;2023-03-14T01:54:35;5.77;;;1.97;;
17153;SDS011;8692;52.164;7.558;2023-03-14T01:57:07;8.87;;;1.90;;
17153;SDS011;8692;52.164;7.558;2023-03-14T01:59:38;5.53;;;2.23;;
17153;SDS011;8692;52.164;7.558;2023-03-14T02:02:14;4.53;;;2.33;;
17153;SDS011;8692;52.164;7.558;2023-03-14T02:04:45;6.40;;;1.77;;
17153;SDS011;8692;52.164;7.558;2023-03-14T02:07:18;5.67;;;2.20;;
17153;SDS011;8692;52.164;7.558;2023-03-14T02:10:05;7.37;;;2.30;;
17153;SDS011;8692;52.164;7.558;2023-03-14T02:12:37;3.67;;;1.70;;
17153;SDS011;8692;52.164;7.558;2023-03-14T02:15:27;6.87;;;2.10;;
17153;SDS011;8692;52.164;7.558;2023-03-14T02:18:04;5.67;;;1.90;;
17153;SDS011;8692;52.164;7.558;2023-03-14T02:20:58;5.73;;;2.17;;
17153;SDS011;8692;52.164;7.558;2023-03-14T02:23:33;5.30;;;2.00;;
17153;SDS011;8692;52.164;7.558;2023-03-14T02:26:10;6.07;;;1.80;;
17153;SDS011;8692;52.164;7.558;2023-03-14T02:28:42;7.33;;;2.17;;
17153;SDS011;8692;52.164;7.558;2023-03-14T02:31:10;6.33;;;2.00;;
17153;SDS011;8692;52.164;7.558;2023-03-14T02:33:40;5.43;;;2.10;;
17153;SDS011;8692;52.164;7.558;2023-03-14T02:36:11;7.50;;;2.10;;
17153;SDS011;8692;52.164;7.558;2023-03-14T02:38:44;3.77;;;1.53;;
17153;SDS011;8692;52.164;7.558;2023-03-14T02:41:15;7.10;;;2.47;;
17153;SDS011;8692;52.164;7.558;2023-03-14T02:43:56;5.00;;;1.80;;
17153;SDS011;8692;52.164;7.558;2023-03-14T02:46:26;6.17;;;1.60;;
17153;SDS011;8692;52.164;7.558;2023-03-14T02:48:55;6.07;;;2.13;;
17153;SDS011;8692;52.164;7.558;2023-03-14T02:51:30;5.57;;;1.50;;
17153;SDS011;8692;52.164;7.558;2023-03-14T02:54:02;3.80;;;1.80;;
17153;SDS011;8692;52.164;7.558;2023-03-14T02:56:30;5.87;;;1.63;;
17153;SDS011;8692;52.164;7.558;2023-03-14T02:59:03;6.20;;;1.53;;
17153;SDS011;8692;52.164;7.558;2023-03-14T03:01:38;7.03;;;1.30;;
17153;SDS011;8692;52.164;7.558;2023-03-14T03:04:07;4.00;;;1.43;;
17153;SDS011;8692;52.164;7.558;2023-03-14T03:06:35;7.43;;;1.60;;
17153;SDS011;8692;52.164;7.558;2023-03-14T03:09:03;4.83;;;1.70;;
17153;SDS011;8692;52.164;7.558;2023-03-14T03:11:31;7.50;;;1.87;;
17153;SDS011;8692;52.164;7.558;2023-03-14T03:13:59;5.77;;;1.47;;
17153;SDS011;8692;52.164;7.558;2023-03-14T03:16:29;4.83;;;1.50;;
17153;SDS011;8692;52.164;7.558;2023-03-14T03:18:59;7.97;;;1.60;;
17153;SDS011;8692;52.164;7.558;2023-03-14T03:21:29;6.50;;;1.80;;
17153;SDS011;8692;52.164;7.558;2023-03-14T03:23:59;8.77;;;1.60;;
17153;SDS011;8692;52.164;7.558;2023-03-14T03:26:33;5.83;;;1.93;;
17153;SDS011;8692;52.164;7.558;2023-03-14T03:29:04;4.63;;;1.67;;
17153;SDS011;8692;52.164;7.558;2023-03-14T03:31:37;4.90;;;1.53;;
17153;SDS011;8692;52.164;7.558;2023-03-14T03:34:06;6.67;;;1.47;;
17153;SDS011;8692;52.164;7.558;2023-03-14T03:36:34;5.30;;;1.33;;
17153;SDS011;8692;52.164;7.558;2023-03-14T03:39:04;5.93;;;1.83;;
17153;SDS011;8692;52.164;7.558;2023-03-14T03:41:34;7.23;;;1.97;;
17153;SDS011;8692;52.164;7.558;2023-03-14T03:44:05;6.20;;;1.67;;
17153;SDS011;8692;52.164;7.558;2023-03-14T03:46:35;4.27;;;1.60;;
17153;SDS011;8692;52.164;7.558;2023-03-14T03:49:07;5.20;;;1.53;;
17153;SDS011;8692;52.164;7.558;2023-03-14T03:51:39;2.63;;;1.13;;
17153;SDS011;8692;52.164;7.558;2023-03-14T03:54:08;5.87;;;1.40;;
17153;SDS011;8692;52.164;7.558;2023-03-14T03:56:37;6.50;;;1.53;;
17153;SDS011;8692;52.164;7.558;2023-03-14T03:59:07;4.67;;;1.33;;
17153;SDS011;8692;52.164;7.558;2023-03-14T04:01:38;4.47;;;1.20;;
17153;SDS011;8692;52.164;7.558;2023-03-14T04:04:09;7.23;;;1.80;;
17153;SDS011;8692;52.164;7.558;2023-03-14T04:06:38;7.83;;;1.63;;
17153;SDS011;8692;52.164;7.558;2023-03-14T04:09:10;5.57;;;1.70;;
17153;SDS011;8692;52.164;7.558;2023-03-14T04:11:45;4.00;;;1.30;;
17153;SDS011;8692;52.164;7.558;2023-03-14T04:14:19;3.40;;;1.30;;
17153;SDS011;8692;52.164;7.558;2023-03-14T04:16:54;7.27;;;1.53;;
17153;SDS011;8692;52.164;7.558;2023-03-14T04:19:22;9.83;;;2.70;;
17153;SDS011;8692;52.164;7.558;2023-03-14T04:21:52;5.60;;;1.60;;
17153;SDS011;8692;52.164;7.558;2023-03-14T04:24:24;6.27;;;1.60;;
17153;SDS011;8692;52.164;7.558;2023-03-14T04:26:55;5.97;;;1.70;;
17153;SDS011;8692;52.164;7.558;2023-03-14T04:29:24;8.57;;;1.70;;
17153;SDS011;8692;52.164;7.558;2023-03-14T04:31:56;5.83;;;1.47;;
17153;SDS011;8692;52.164;7.558;2023-03-14T04:34:24;6.43;;;1.63;;
17153;SDS011;8692;52.164;7.558;2023-03-14T04:36:55;11.43;;;2.03;;
17153;SDS011;8692;52.164;7.558;2023-03-14T04:39:29;7.43;;;1.53;;
17153;SDS011;8692;52.164;7.558;2023-03-14T04:42:23;6.60;;;2.17;;
17153;SDS011;8692;52.164;7.558;2023-03-14T04:44:52;6.57;;;1.90;;
17153;SDS011;8692;52.164;7.558;2023-03-14T04:47:25;5.17;;;1.73;;
17153;SDS011;8692;52.164;7.558;2023-03-14T04:49:53;10.80;;;1.93;;
17153;SDS011;8692;52.164;7.558;2023-03-14T04:52:23;6.03;;;1.80;;
17153;SDS011;8692;52.164;7.558;2023-03-14T04:54:54;8.50;;;1.90;;
17153;SDS011;8692;52.164;7.558;2023-03-14T04:57:25;7.40;;;1.93;;
17153;SDS011;8692;52.164;7.558;2023-03-14T04:59:54;5.13;;;1.67;;
17153;SDS011;8692;52.164;7.558;2023-03-14T05:02:40;7.73;;;2.03;;
17153;SDS011;8692;52.164;7.558;2023-03-14T05:05:24;4.37;;;1.57;;
17153;SDS011;8692;52.164;7.558;2023-03-14T05:08:11;7.27;;;2.17;;
17153;SDS011;8692;52.164;7.558;2023-03-14T05:10:40;4.77;;;1.40;;
17153;SDS011;8692;52.164;7.558;2023-03-14T05:13:16;8.17;;;2.10;;
17153;SDS011;8692;52.164;7.558;2023-03-14T05:16:04;5.60;;;1.90;;
17153;SDS011;8692;52.164;7.558;2023-03-14T05:19:01;9.10;;;2.20;;
17153;SDS011;8692;52.164;7.558;2023-03-14T05:21:44;5.10;;;1.57;;
17153;SDS011;8692;52.164;7.558;2023-03-14T05:24:12;3.70;;;1.43;;
17153;SDS011;8692;52.164;7.558;2023-03-14T05:27:09;6.43;;;1.57;;
17153;SDS011;8692;52.164;7.558;2023-03-14T05:30:07;8.83;;;2.13;;
17153;SDS011;8692;52.164;7.558;2023-03-14T05:33:05;7.57;;;1.73;;
17153;SDS011;8692;52.164;7.558;2023-03-14T05:36:01;9.43;;;1.87;;
17153;SDS011;8692;52.164;7.558;2023-03-14T05:39:02;3.90;;;2.00;;
17153;SDS011;8692;52.164;7.558;2023-03-14T05:41:36;6.57;;;1.93;;
17153;SDS011;8692;52.164;7.558;2023-03-14T05:44:24;6.27;;;1.90;;
17153;SDS011;8692;52.164;7.558;2023-03-14T05:47:04;9.87;;;2.70;;
17153;SDS011;8692;52.164;7.558;2023-03-14T05:49:43;7.40;;;2.83;;
17153;SDS011;8692;52.164;7.558;2023-03-14T05:52:32;8.80;;;2.90;;
17153;SDS011;8692;52.164;7.558;2023-03-14T05:55:24;10.30;;;3.53;;
17153;SDS011;8692;52.164;7.558;2023-03-14T05:58:16;6.27;;;3.13;;
17153;SDS011;8692;52.164;7.558;2023-03-14T06:01:07;9.40;;;3.23;;
17153;SDS011;8692;52.164;7.558;2023-03-14T06:03:55;8.00;;;3.00;;
17153;SDS011;8692;52.164;7.558;2023-03-14T06:06:23;8.00;;;2.57;;
17153;SDS011;8692;52.164;7.558;2023-03-14T06:08:53;6.70;;;3.10;;
17153;SDS011;8692;52.164;7.558;2023-03-14T06:11:24;8.70;;;2.60;;
17153;SDS011;8692;52.164;7.558;2023-03-14T06:13:53;6.37;;;2.50;;
17153;SDS011;8692;52.164;7.558;2023-03-14T06:16:23;7.60;;;2.40;;
17153;SDS011;8692;52.164;7.558;2023-03-14T06:18:52;8.32;;;2.38;;
17153;SDS011;8692;52.164;7.558;2023-03-14T06:21:22;4.33;;;1.97;;
17153;SDS011;8692;52.164;7.558;2023-03-14T06:23:51;8.27;;;1.43;;
17153;SDS011;8692;52.164;7.558;2023-03-14T06:26:24;5.13;;;1.97;;
17153;SDS011;8692;52.164;7.558;2023-03-14T06:28:54;6.43;;;2.13;;
17153;SDS011;8692;52.164;7.558;2023-03-14T06:31:22;7.07;;;2.50;;
17153;SDS011;8692;52.164;7.558;2023-03-14T06:33:55;8.60;;;2.03;;
17153;SDS011;8692;52.164;7.558;2023-03-14T06:36:27;2.80;;;1.67;;
17153;SDS011;8692;52.164;7.558;2023-03-14T06:38:57;3.30;;;1.23;;
17153;SDS011;8692;52.164;7.558;2023-03-14T06:41:30;4.77;;;1.60;;
17153;SDS011;8692;52.164;7.558;2023-03-14T06:43:59;2.73;;;1.30;;
17153;SDS011;8692;52.164;7.558;2023-03-14T06:46:30;4.00;;;1.40;;
17153;SDS011;8692;52.164;7.558;2023-03-14T06:49:01;4.43;;;1.40;;
17153;SDS011;8692;52.164;7.558;2023-03-14T06:51:31;3.87;;;1.10;;
17153;SDS011;8692;52.164;7.558;2023-03-14T06:54:02;2.63;;;1.07;;
17153;SDS011;8692;52.164;7.558;2023-03-14T06:56:35;2.70;;;1.07;;
17153;SDS011;8692;52.164;7.558;2023-03-14T06:59:06;1.73;;;1.07;;
17153;SDS011;8692;52.164;7.558;2023-03-14T07:01:36;4.33;;;0.90;;
17153;SDS011;8692;52.164;7.558;2023-03-14T07:04:08;5.50;;;1.23;;
17153;SDS011;8692;52.164;7.558;2023-03-14T07:06:41;3.07;;;1.07;;
17153;SDS011;8692;52.164;7.558;2023-03-14T07:09:11;1.27;;;0.90;;
17153;SDS011;8692;52.164;7.558;2023-03-14T07:11:45;3.37;;;1.30;;
17153;SDS011;8692;52.164;7.558;2023-03-14T07:14:15;2.63;;;0.90;;
17153;SDS011;8692;52.164;7.558;2023-03-14T07:16:48;3.07;;;1.00;;
17153;SDS011;8692;52.164;7.558;2023-03-14T07:19:19;1.90;;;0.90;;
17153;SDS011;8692;52.164;7.558;2023-03-14T07:21:50;3.17;;;1.03;;
17153;SDS011;8692;52.164;7.558;2023-03-14T07:24:22;3.00;;;1.13;;
17153;SDS011;8692;52.164;7.558;2023-03-14T07:26:52;1.80;;;0.80;;
17153;SDS011;8692;52.164;7.558;2023-03-14T07:29:23;1.00;;;0.60;;
17153;SDS011;8692;52.164;7.558;2023-03-14T07:31:51;1.77;;;0.67;;
17153;SDS011;8692;52.164;7.558;2023-03-14T07:34:22;0.90;;;0.73;;
17153;SDS011;8692;52.164;7.558;2023-03-14T07:36:54;1.67;;;1.10;;
17153;SDS011;8692;52.164;7.558;2023-03-14T07:39:24;1.90;;;1.30;;
17153;SDS011;8692;52.164;7.558;2023-03-14T07:42:00;1.93;;;1.10;;
17153;SDS011;8692;52.164;7.558;2023-03-14T07:44:47;3.13;;;1.03;;
17153;SDS011;8692;52.164;7.558;2023-03-14T07:47:18;1.60;;;1.03;;
17153;SDS011;8692;52.164;7.558;2023-03-14T07:49:48;1.13;;;1.00;;
17153;SDS011;8692;52.164;7.558;2023-03-14T07:52:16;1.47;;;0.90;;
17153;SDS011;8692;52.164;7.558;2023-03-14T07:54:44;1.07;;;0.93;;
17153;SDS011;8692;52.164;7.558;2023-03-14T07:57:16;1.10;;;1.00;;
17153;SDS011;8692;52.164;7.558;2023-03-14T07:59:47;1.03;;;0.93;;
17153;SDS011;8692;52.164;7.558;2023-03-14T08:02:15;2.60;;;1.57;;
17153;SDS011;8692;52.164;7.558;2023-03-14T08:04:44;1.33;;;1.20;;
17153;SDS011;8692;52.164;7.558;2023-03-14T08:07:12;1.43;;;1.10;;
17153;SDS011;8692;52.164;7.558;2023-03-14T08:09:43;2.03;;;1.10;;
17153;SDS011;8692;52.164;7.558;2023-03-14T08:12:11;1.03;;;0.80;;
17153;SDS011;8692;52.164;7.558;2023-03-14T08:14:40;1.63;;;1.30;;
17153;SDS011;8692;52.164;7.558;2023-03-14T08:17:11;1.27;;;1.13;;
17153;SDS011;8692;52.164;7.558;2023-03-14T08:19:40;3.23;;;1.53;;
17153;SDS011;8692;52.164;7.558;2023-03-14T08:22:08;1.67;;;1.00;;
17153;SDS011;8692;52.164;7.558;2023-03-14T08:24:37;1.30;;;1.20;;
17153;SDS011;8692;52.164;7.558;2023-03-14T08:27:05;1.77;;;1.20;;
17153;SDS011;8692;52.164;7.558;2023-03-14T08:29:36;1.23;;;1.13;;
17153;SDS011;8692;52.164;7.558;2023-03-14T08:32:05;3.73;;;1.63;;
17153;SDS011;8692;52.164;7.558;2023-03-14T08:34:34;2.60;;;1.53;;
17153;SDS011;8692;52.164;7.558;2023-03-14T08:37:04;2.33;;;1.40;;
17153;SDS011;8692;52.164;7.558;2023-03-14T08:39:50;1.70;;;1.47;;
17153;SDS011;8692;52.164;7.558;2023-03-14T08:42:19;1.60;;;1.50;;
17153;SDS011;8692;52.164;7.558;2023-03-14T08:44:50;2.83;;;1.60;;
17153;SDS011;8692;52.164;7.558;2023-03-14T08:47:20;2.97;;;1.73;;
17153;SDS011;8692;52.164;7.558;2023-03-14T08:49:48;2.43;;;2.20;;
17153;SDS011;8692;52.164;7.558;2023-03-14T08:52:16;2.23;;;1.60;;
17153;SDS011;8692;52.164;7.558;2023-03-14T08:54:44;3.20;;;1.70;;
17153;SDS011;8692;52.164;7.558;2023-03-14T08:57:12;2.27;;;1.70;;
17153;SDS011;8692;52.164;7.558;2023-03-14T08:59:40;2.27;;;2.07;;
17153;SDS011;8692;52.164;7.558;2023-03-14T09:02:09;4.53;;;2.40;;
17153;SDS011;8692;52.164;7.558;2023-03-14T09:04:42;2.50;;;2.20;;
17153;SDS011;8692;52.164;7.558;2023-03-14T09:07:10;2.37;;;1.63;;
17153;SDS011;8692;52.164;7.558;2023-03-14T09:09:38;1.83;;;1.43;;
17153;SDS011;8692;52.164;7.558;2023-03-14T09:12:09;1.57;;;1.00;;
17153;SDS011;8692;52.164;7.558;2023-03-14T09:14:39;0.83;;;0.83;;
17153;SDS011;8692;52.164;7.558;2023-03-14T09:17:07;1.80;;;0.50;;
17153;SDS011;8692;52.164;7.558;2023-03-14T09:19:38;2.50;;;0.70;;
17153;SDS011;8692;52.164;7.558;2023-03-14T09:22:09;3.30;;;1.00;;
17153;SDS011;8692;52.164;7.558;2023-03-14T09:24:40;0.30;;;0.30;;
17153;SDS011;8692;52.164;7.558;2023-03-14T09:27:08;0.80;;;0.30;;
17153;SDS011;8692;52.164;7.558;2023-03-14T09:29:36;0.70;;;0.23;;
17153;SDS011;8692;52.164;7.558;2023-03-14T09:32:05;0.20;;;0.20;;
17153;SDS011;8692;52.164;7.558;2023-03-14T09:34:33;1.73;;;0.40;;
17153;SDS011;8692;52.164;7.558;2023-03-14T09:37:04;1.03;;;0.40;;
17153;SDS011;8692;52.164;7.558;2023-03-14T09:39:34;0.43;;;0.40;;
17153;SDS011;8692;52.164;7.558;2023-03-14T09:42:03;0.23;;;0.23;;
17153;SDS011;8692;52.164;7.558;2023-03-14T09:44:37;1.20;;;0.30;;
17153;SDS011;8692;52.164;7.558;2023-03-14T09:47:10;0.30;;;0.30;;
17153;SDS011;8692;52.164;7.558;2023-03-14T09:49:42;0.47;;;0.30;;
17153;SDS011;8692;52.164;7.558;2023-03-14T09:52:13;0.40;;;0.40;;
17153;SDS011;8692;52.164;7.558;2023-03-14T09:54:49;0.50;;;0.40;;
17153;SDS011;8692;52.164;7.558;2023-03-14T09:57:23;1.50;;;0.60;;
17153;SDS011;8692;52.164;7.558;2023-03-14T09:59:56;0.30;;;0.30;;
17153;SDS011;8692;52.164;7.558;2023-03-14T10:02:33;1.03;;;0.37;;
17153;SDS011;8692;52.164;7.558;2023-03-14T10:05:05;0.53;;;0.37;;
17153;SDS011;8692;52.164;7.558;2023-03-14T10:07:35;0.93;;;0.30;;
17153;SDS011;8692;52.164;7.558;2023-03-14T10:10:07;1.53;;;0.50;;
17153;SDS011;8692;52.164;7.558;2023-03-14T10:12:38;1.47;;;0.33;;
17153;SDS011;8692;52.164;7.558;2023-03-14T10:15:11;1.00;;;0.37;;
17153;SDS011;8692;52.164;7.558;2023-03-14T10:17:47;2.13;;;0.30;;
17153;SDS011;8692;52.164;7.558;2023-03-14T10:20:25;1.53;;;0.50;;
17153;SDS011;8692;52.164;7.558;2023-03-14T10:22:59;1.30;;;0.20;;
17153;SDS011;8692;52.164;7.558;2023-03-14T10:25:33;0.70;;;0.30;;
17153;SDS011;8692;52.164;7.558;2023-03-14T10:28:05;0.73;;;0.20;;
17153;SDS011;8692;52.164;7.558;2023-03-14T10:30:39;1.50;;;0.40;;
17153;SDS011;8692;52.164;7.558;2023-03-14T10:33:12;0.97;;;0.40;;
17153;SDS011;8692;52.164;7.558;2023-03-14T10:35:52;1.03;;;0.30;;
17153;SDS011;8692;52.164;7.558;2023-03-14T10:38:22;1.23;;;0.20;;
17153;SDS011;8692;52.164;7.558;2023-03-14T10:40:56;0.77;;;0.20;;
17153;SDS011;8692;52.164;7.558;2023-03-14T10:43:25;0.60;;;0.40;;
17153;SDS011;8692;52.164;7.558;2023-03-14T10:46:00;0.13;;;0.13;;
17153;SDS011;8692;52.164;7.558;2023-03-14T10:48:53;0.93;;;0.33;;
17153;SDS011;8692;52.164;7.558;2023-03-14T10:51:24;0.47;;;0.30;;
17153;SDS011;8692;52.164;7.558;2023-03-14T10:53:58;0.97;;;0.60;;
17153;SDS011;8692;52.164;7.558;2023-03-14T10:56:33;1.30;;;0.27;;
17153;SDS011;8692;52.164;7.558;2023-03-14T10:59:02;0.93;;;0.30;;
17153;SDS011;8692;52.164;7.558;2023-03-14T11:01:37;2.27;;;0.60;;
17153;SDS011;8692;52.164;7.558;2023-03-14T11:04:13;0.73;;;0.40;;
17153;SDS011;8692;52.164;7.558;2023-03-14T11:06:53;1.77;;;0.57;;
17153;SDS011;8692;52.164;7.558;2023-03-14T11:09:32;2.93;;;1.03;;
17153;SDS011;8692;52.164;7.558;2023-03-14T11:12:17;3.07;;;0.63;;
17153;SDS011;8692;52.164;7.558;2023-03-14T11:14:58;3.43;;;0.60;;
17153;SDS011;8692;52.164;7.558;2023-03-14T11:17:30;0.43;;;0.30;;
17153;SDS011;8692;52.164;7.558;2023-03-14T11:20:12;0.83;;;0.37;;
17153;SDS011;8692;52.164;7.558;2023-03-14T11:22:53;1.27;;;0.77;;
17153;SDS011;8692;52.164;7.558;2023-03-14T11:25:28;3.73;;;0.70;;
17153;SDS011;8692;52.164;7.558;2023-03-14T11:28:04;2.43;;;0.70;;
17153;SDS011;8692;52.164;7.558;2023-03-14T11:30:47;0.73;;;0.43;;
17153;SDS011;8692;52.164;7.558;2023-03-14T11:33:21;2.67;;;0.63;;
17153;SDS011;8692;52.164;7.558;2023-03-14T11:35:53;4.33;;;1.20;;
17153;SDS011;8692;52.164;7.558;2023-03-14T11:38:31;7.60;;;0.77;;
17153;SDS011;8692;52.164;7.558;2023-03-14T11:41:09;3.73;;;1.03;;
17153;SDS011;8692;52.164;7.558;2023-03-14T11:43:43;4.10;;;1.07;;
17153;SDS011;8692;52.164;7.558;2023-03-14T11:46:20;5.77;;;1.30;;
17153;SDS011;8692;52.164;7.558;2023-03-14T11:48:58;5.73;;;1.33;;
17153;SDS011;8692;52.164;7.558;2023-03-14T11:51:32;5.50;;;1.67;;
17153;SDS011;8692;52.164;7.558;2023-03-14T11:54:09;6.03;;;1.80;;
17153;SDS011;8692;52.164;7.558;2023-03-14T11:56:44;5.97;;;1.77;;
17153;SDS011;8692;52.164;7.558;2023-03-14T11:59:21;11.07;;;1.27;;
17153;SDS011;8692;52.164;7.558;2023-03-14T12:01:53;6.10;;;1.63;;
17153;SDS011;8692;52.164;7.558;2023-03-14T12:04:43;5.53;;;1.30;;
17153;SDS011;8692;52.164;7.558;2023-03-14T12:07:25;8.30;;;1.63;;
17153;SDS011;8692;52.164;7.558;2023-03-14T12:09:57;9.37;;;1.53;;
17153;SDS011;8692;52.164;7.558;2023-03-14T12:12:25;7.27;;;2.17;;
17153;SDS011;8692;52.164;7.558;2023-03-14T12:14:59;7.63;;;1.80;;
17153;SDS011;8692;52.164;7.558;2023-03-14T12:17:34;7.97;;;2.03;;
17153;SDS011;8692;52.164;7.558;2023-03-14T12:20:10;8.27;;;1.80;;
17153;SDS011;8692;52.164;7.558;2023-03-14T12:22:45;8.90;;;1.80;;
17153;SDS011;8692;52.164;7.558;2023-03-14T12:25:16;6.37;;;1.50;;
17153;SDS011;8692;52.164;7.558;2023-03-14T12:30:50;6.10;;;1.73;;
17153;SDS011;8692;52.164;7.558;2023-03-14T12:33:26;7.73;;;1.63;;
17153;SDS011;8692;52.164;7.558;2023-03-14T12:39:20;10.17;;;2.13;;
17153;SDS011;8692;52.164;7.558;2023-03-14T12:42:01;8.60;;;1.80;;
17153;SDS011;8692;52.164;7.558;2023-03-14T12:44:43;7.60;;;1.90;;
17153;SDS011;8692;52.164;7.558;2023-03-14T12:50:24;9.93;;;2.03;;
17153;SDS011;8692;52.164;7.558;2023-03-14T12:53:02;12.90;;;2.57;;
17153;SDS011;8692;52.164;7.558;2023-03-14T12:55:48;10.77;;;2.17;;
17153;SDS011;8692;52.164;7.558;2023-03-14T12:58:23;11.07;;;2.93;;
17153;SDS011;8692;52.164;7.558;2023-03-14T13:00:59;15.37;;;3.20;;
17153;SDS011;8692;52.164;7.558;2023-03-14T13:03:41;13.00;;;2.63;;
17153;SDS011;8692;52.164;7.558;2023-03-14T13:12:26;11.80;;;3.07;;
17153;SDS011;8692;52.164;7.558;2023-03-14T13:14:59;8.63;;;2.00;;
17153;SDS011;8692;52.164;7.558;2023-03-14T13:17:30;13.17;;;2.63;;
17153;SDS011;8692;52.164;7.558;2023-03-14T13:20:09;6.63;;;2.43;;
17153;SDS011;8692;52.164;7.558;2023-03-14T13:22:45;13.83;;;2.23;;
17153;SDS011;8692;52.164;7.558;2023-03-14T13:25:15;8.73;;;2.30;;
17153;SDS011;8692;52.164;7.558;2023-03-14T13:27:47;13.40;;;2.50;;
17153;SDS011;8692;52.164;7.558;2023-03-14T13:30:20;14.13;;;2.17;;
17153;SDS011;8692;52.164;7.558;2023-03-14T13:32:50;15.33;;;2.70;;
17153;SDS011;8692;52.164;7.558;2023-03-14T13:35:23;7.50;;;2.57;;
17153;SDS011;8692;52.164;7.558;2023-03-14T13:37:55;6.70;;;1.90;;
17153;SDS011;8692;52.164;7.558;2023-03-14T13:40:39;11.47;;;2.27;;
17153;SDS011;8692;52.164;7.558;2023-03-14T13:43:13;7.47;;;1.87;;
17153;SDS011;8692;52.164;7.558;2023-03-14T13:45:45;9.43;;;2.03;;
17153;SDS011;8692;52.164;7.558;2023-03-14T13:48:23;17.13;;;2.73;;
17153;SDS011;8692;52.164;7.558;2023-03-14T13:51:00;7.47;;;1.33;;
17153;SDS011;8692;52.164;7.558;2023-03-14T13:53:32;9.47;;;1.70;;
17153;SDS011;8692;52.164;7.558;2023-03-14T13:56:09;10.97;;;1.50;;
17153;SDS011;8692;52.164;7.558;2023-03-14T13:58:39;7.40;;;1.90;;
17153;SDS011;8692;52.164;7.558;2023-03-14T14:01:11;5.47;;;1.83;;
17153;SDS011;8692;52.164;7.558;2023-03-14T14:03:42;8.40;;;1.30;;
17153;SDS011;8692;52.164;7.558;2023-03-14T14:06:22;10.20;;;1.70;;
17153;SDS011;8692;52.164;7.558;2023-03-14T14:08:59;9.27;;;1.33;;
17153;SDS011;8692;52.164;7.558;2023-03-14T14:11:41;6.87;;;2.03;;
17153;SDS011;8692;52.164;7.558;2023-03-14T14:14:23;6.17;;;1.60;;
17153;SDS011;8692;52.164;7.558;2023-03-14T14:16:57;5.97;;;1.33;;
17153;SDS011;8692;52.164;7.558;2023-03-14T14:19:27;3.83;;;1.20;;
17153;SDS011;8692;52.164;7.558;2023-03-14T14:21:59;6.20;;;1.53;;
17153;SDS011;8692;52.164;7.558;2023-03-14T14:24:31;4.47;;;1.57;;
17153;SDS011;8692;52.164;7.558;2023-03-14T14:27:08;7.17;;;1.30;;
17153;SDS011;8692;52.164;7.558;2023-03-14T14:29:43;3.97;;;1.50;;
17153;SDS011;8692;52.164;7.558;2023-03-14T14:32:23;6.53;;;2.13;;
17153;SDS011;8692;52.164;7.558;2023-03-14T14:34:58;6.30;;;1.20;;
17153;SDS011;8692;52.164;7.558;2023-03-14T14:37:29;6.10;;;1.70;;
17153;SDS011;8692;52.164;7.558;2023-03-14T14:40:00;2.93;;;1.17;;
17153;SDS011;8692;52.164;7.558;2023-03-14T14:42:38;6.17;;;1.23;;
17153;SDS011;8692;52.164;7.558;2023-03-14T14:45:11;4.30;;;1.23;;
17153;SDS011;8692;52.164;7.558;2023-03-14T14:47:53;5.60;;;1.63;;
17153;SDS011;8692;52.164;7.558;2023-03-14T14:50:36;4.33;;;1.10;;
17153;SDS011;8692;52.164;7.558;2023-03-14T14:53:28;3.70;;;1.00;;
17153;SDS011;8692;52.164;7.558;2023-03-14T14:55:58;3.87;;;1.07;;
17153;SDS011;8692;52.164;7.558;2023-03-14T14:58:34;5.97;;;1.53;;
17153;SDS011;8692;52.164;7.558;2023-03-14T15:01:07;6.53;;;1.37;;
17153;SDS011;8692;52.164;7.558;2023-03-14T15:03:41;11.43;;;2.27;;
17153;SDS011;8692;52.164;7.558;2023-03-14T15:06:10;3.23;;;0.93;;
17153;SDS011;8692;52.164;7.558;2023-03-14T15:08:41;4.20;;;1.13;;
17153;SDS011;8692;52.164;7.558;2023-03-14T15:11:15;4.53;;;1.20;;
17153;SDS011;8692;52.164;7.558;2023-03-14T15:13:45;4.43;;;1.10;;
17153;SDS011;8692;52.164;7.558;2023-03-14T15:16:15;5.63;;;1.53;;
17153;SDS011;8692;52.164;7.558;2023-03-14T15:18:45;5.13;;;1.60;;
17153;SDS011;8692;52.164;7.558;2023-03-14T15:21:17;6.57;;;1.27;;
17153;SDS011;8692;52.164;7.558;2023-03-14T15:23:46;7.57;;;1.80;;
17153;SDS011;8692;52.164;7.558;2023-03-14T15:26:18;6.90;;;3.13;;
17153;SDS011;8692;52.164;7.558;2023-03-14T15:28:48;8.60;;;1.57;;
17153;SDS011;8692;52.164;7.558;2023-03-14T15:31:17;6.93;;;1.57;;
17153;SDS011;8692;52.164;7.558;2023-03-14T15:33:49;9.37;;;1.63;;
17153;SDS011;8692;52.164;7.558;2023-03-14T15:36:22;7.67;;;1.73;;
17153;SDS011;8692;52.164;7.558;2023-03-14T15:38:54;5.73;;;1.77;;
17153;SDS011;8692;52.164;7.558;2023-03-14T15:41:26;7.13;;;1.63;;
17153;SDS011;8692;52.164;7.558;2023-03-14T15:43:55;9.30;;;1.40;;
17153;SDS011;8692;52.164;7.558;2023-03-14T15:46:23;5.50;;;1.50;;
17153;SDS011;8692;52.164;7.558;2023-03-14T15:48:56;6.97;;;1.77;;
17153;SDS011;8692;52.164;7.558;2023-03-14T15:51:24;5.67;;;1.63;;
17153;SDS011;8692;52.164;7.558;2023-03-14T15:53:54;4.30;;;1.30;;